createdAt,value
2023-05-16T00:00:15.985Z,10.50
2023-05-16T00:03:03.409Z,9.70
2023-05-16T00:05:33.994Z,10.80
2023-05-16T00:08:01.027Z,10.00
2023-05-16T00:10:30.505Z,11.30
2023-05-16T00:12:57.691Z,13.40
2023-05-16T00:15:27.634Z,10.50
2023-05-16T00:18:06.416Z,10.50
2023-05-16T00:20:43.816Z,10.80
2023-05-16T00:23:10.838Z,11.70
2023-05-16T00:25:37.732Z,10.50
2023-05-16T00:28:04.956Z,11.80
2023-05-16T00:30:32.111Z,10.80
2023-05-16T00:32:59.226Z,12.30
2023-05-16T00:35:27.127Z,12.30
2023-05-16T00:37:54.489Z,11.40
2023-05-16T00:40:22.388Z,15.60
2023-05-16T00:42:49.398Z,13.40
2023-05-16T00:45:16.453Z,13.70
2023-05-16T00:47:46.392Z,13.80
2023-05-16T00:50:14.383Z,13.30
2023-05-16T00:52:41.962Z,14.70
2023-05-16T00:55:11.353Z,13.70
2023-05-16T00:57:38.714Z,12.60
2023-05-16T01:00:08.503Z,13.50
2023-05-16T01:02:37.933Z,12.80
2023-05-16T01:05:07.514Z,12.40
2023-05-16T01:07:34.456Z,14.40
2023-05-16T01:10:01.715Z,13.30
2023-05-16T01:12:38.203Z,13.30
2023-05-16T01:15:10.412Z,13.40
2023-05-16T01:17:45.741Z,12.50
2023-05-16T01:20:22.692Z,13.50
2023-05-16T01:25:47.275Z,17.20
2023-05-16T01:28:17.314Z,15.00
2023-05-16T01:30:44.916Z,13.70
2023-05-16T01:33:12.576Z,13.70
2023-05-16T01:35:48.786Z,14.10
2023-05-16T01:38:24.797Z,14.30
2023-05-16T01:40:57.298Z,16.00
2023-05-16T01:43:31.914Z,14.20
2023-05-16T01:46:10.654Z,13.90
2023-05-16T01:48:45.860Z,16.70
2023-05-16T01:51:15.265Z,13.30
2023-05-16T01:53:45.509Z,14.10
2023-05-16T01:56:17.016Z,17.50
2023-05-16T01:58:47.252Z,13.70
2023-05-16T02:01:17.320Z,14.70
2023-05-16T02:03:44.275Z,15.20
2023-05-16T02:06:12.119Z,16.00
2023-05-16T02:08:39.343Z,14.40
2023-05-16T02:11:06.187Z,14.60
2023-05-16T02:13:33.043Z,14.60
2023-05-16T02:16:04.375Z,17.00
2023-05-16T02:18:32.109Z,16.30
2023-05-16T02:21:02.923Z,15.10
2023-05-16T02:23:30.124Z,15.80
2023-05-16T02:25:57.042Z,15.90
2023-05-16T02:28:24.019Z,17.90
2023-05-16T02:31:00.156Z,14.90
2023-05-16T02:33:28.260Z,15.00
2023-05-16T02:35:56.135Z,14.80
2023-05-16T02:38:26.399Z,14.80
2023-05-16T02:40:56.253Z,15.40
2023-05-16T02:43:23.103Z,14.80
2023-05-16T02:45:50.292Z,14.70
2023-05-16T02:48:17.630Z,15.50
2023-05-16T02:50:44.468Z,15.60
2023-05-16T02:53:11.869Z,14.60
2023-05-16T02:55:39.009Z,15.10
2023-05-16T02:58:06.175Z,13.10
2023-05-16T03:00:33.142Z,14.80
2023-05-16T03:03:00.636Z,14.10
2023-05-16T03:05:28.924Z,14.40
2023-05-16T03:07:56.438Z,13.70
2023-05-16T03:10:24.128Z,14.50
2023-05-16T03:12:51.046Z,13.30
2023-05-16T03:15:18.258Z,15.60
2023-05-16T03:17:45.580Z,15.70
2023-05-16T03:20:14.390Z,15.00
2023-05-16T03:22:41.555Z,15.70
2023-05-16T03:25:12.019Z,15.10
2023-05-16T03:27:41.014Z,14.10
2023-05-16T03:30:10.142Z,15.80
2023-05-16T03:32:37.155Z,14.20
2023-05-16T03:35:04.424Z,14.10
2023-05-16T03:37:31.992Z,14.00
2023-05-16T03:39:58.916Z,15.10
2023-05-16T03:42:25.939Z,13.00
2023-05-16T03:44:52.804Z,14.70
2023-05-16T03:47:20.171Z,15.20
2023-05-16T03:49:47.057Z,14.10
2023-05-16T03:52:16.614Z,14.60
2023-05-16T03:54:43.660Z,13.90
2023-05-16T03:57:10.608Z,13.80
2023-05-16T03:59:39.136Z,18.20
2023-05-16T04:02:06.972Z,14.50
2023-05-16T04:04:34.100Z,14.40
2023-05-16T04:07:01.723Z,14.40
2023-05-16T04:09:29.267Z,14.00
2023-05-16T04:11:56.815Z,14.00
2023-05-16T04:14:24.356Z,13.70
2023-05-16T04:16:51.927Z,14.60
2023-05-16T04:19:19.644Z,14.10
2023-05-16T04:21:46.890Z,13.60
2023-05-16T04:24:13.855Z,14.50
2023-05-16T04:26:40.811Z,14.50
2023-05-16T04:29:08.270Z,14.80
2023-05-16T04:31:35.424Z,16.60
2023-05-16T04:34:02.627Z,13.80
2023-05-16T04:36:31.772Z,14.00
2023-05-16T04:38:58.916Z,13.40
2023-05-16T04:41:26.333Z,12.20
2023-05-16T04:43:53.742Z,14.20
2023-05-16T04:46:24.705Z,14.80
2023-05-16T04:48:52.255Z,13.80
2023-05-16T04:51:19.291Z,12.50
2023-05-16T04:53:46.340Z,11.40
2023-05-16T04:56:13.196Z,11.60
2023-05-16T04:58:43.052Z,10.70
2023-05-16T05:01:11.300Z,11.40
2023-05-16T05:03:38.363Z,11.20
2023-05-16T05:06:05.586Z,10.60
2023-05-16T05:08:32.912Z,11.00
2023-05-16T05:11:00.183Z,9.90
2023-05-16T05:13:27.040Z,12.20
2023-05-16T05:15:54.088Z,12.80
2023-05-16T05:18:21.054Z,9.00
2023-05-16T05:20:48.765Z,10.00
2023-05-16T05:23:15.918Z,8.40
2023-05-16T05:25:42.861Z,11.90
2023-05-16T05:28:09.992Z,13.10
2023-05-16T05:30:37.067Z,7.80
2023-05-16T05:33:04.142Z,13.40
2023-05-16T05:35:31.176Z,9.10
2023-05-16T05:37:58.331Z,10.70
2023-05-16T05:40:25.261Z,11.40
2023-05-16T05:42:52.093Z,11.70
2023-05-16T05:45:19.550Z,7.40
2023-05-16T05:47:46.666Z,8.20
2023-05-16T05:50:14.787Z,7.90
2023-05-16T05:52:42.459Z,10.80
2023-05-16T05:55:10.218Z,10.20
2023-05-16T05:57:37.077Z,8.90
2023-05-16T06:00:05.301Z,9.90
2023-05-16T06:02:34.831Z,12.80
2023-05-16T06:05:02.405Z,9.60
2023-05-16T06:07:29.633Z,11.30
2023-05-16T06:09:56.579Z,8.90
2023-05-16T06:12:23.655Z,9.30
2023-05-16T06:14:50.811Z,12.20
2023-05-16T06:17:18.239Z,10.90
2023-05-16T06:19:45.348Z,10.20
2023-05-16T06:22:12.517Z,11.30
2023-05-16T06:24:39.589Z,10.00
2023-05-16T06:27:07.405Z,11.30
2023-05-16T06:29:34.506Z,10.90
2023-05-16T06:32:01.518Z,12.00
2023-05-16T06:34:28.649Z,11.80
2023-05-16T06:36:55.977Z,10.70
2023-05-16T06:39:23.004Z,10.40
2023-05-16T06:41:50.006Z,10.80
2023-05-16T06:44:17.452Z,13.00
2023-05-16T06:46:44.451Z,13.50
2023-05-16T06:49:11.424Z,10.70
2023-05-16T06:51:38.913Z,11.00
2023-05-16T06:54:05.917Z,9.70
2023-05-16T06:56:33.626Z,11.70
2023-05-16T06:59:01.985Z,9.10
2023-05-16T07:01:29.088Z,8.90
2023-05-16T07:03:56.416Z,9.60
2023-05-16T07:06:23.581Z,9.40
2023-05-16T07:08:53.733Z,10.10
2023-05-16T07:11:21.509Z,13.60
2023-05-16T07:13:48.737Z,11.80
2023-05-16T07:16:18.552Z,11.00
2023-05-16T07:18:45.700Z,10.20
2023-05-16T07:21:12.766Z,9.50
2023-05-16T07:23:39.957Z,9.00
2023-05-16T07:26:07.050Z,8.90
2023-05-16T07:28:33.941Z,7.40
2023-05-16T07:31:01.179Z,7.20
2023-05-16T07:33:30.362Z,5.50
2023-05-16T07:36:07.737Z,4.00
2023-05-16T07:38:42.124Z,5.50
2023-05-16T07:41:09.316Z,6.00
2023-05-16T07:43:36.958Z,4.50
2023-05-16T07:46:04.015Z,4.50
2023-05-16T07:48:31.174Z,5.10
2023-05-16T07:50:58.007Z,6.70
2023-05-16T07:53:25.269Z,4.40
2023-05-16T07:55:52.638Z,3.40
2023-05-16T07:58:19.891Z,6.60
2023-05-16T08:00:46.869Z,4.30
2023-05-16T08:03:14.013Z,7.20
2023-05-16T08:05:40.967Z,4.90
2023-05-16T08:08:08.518Z,3.70
2023-05-16T08:10:35.781Z,5.90
2023-05-16T08:13:02.983Z,7.10
2023-05-16T08:15:32.119Z,4.30
2023-05-16T08:18:00.347Z,3.50
2023-05-16T08:20:27.803Z,3.70
2023-05-16T08:22:55.100Z,4.50
2023-05-16T08:25:22.744Z,4.60
2023-05-16T08:27:50.800Z,7.60
2023-05-16T08:30:18.220Z,6.40
2023-05-16T08:32:45.499Z,4.20
2023-05-16T08:35:13.258Z,5.90
2023-05-16T08:37:40.263Z,3.90
2023-05-16T08:40:10.855Z,5.10
2023-05-16T08:42:38.638Z,6.80
2023-05-16T08:45:06.720Z,4.20
2023-05-16T08:47:36.791Z,3.50
2023-05-16T08:50:05.880Z,3.80
2023-05-16T08:52:34.617Z,3.90
2023-05-16T08:55:10.155Z,3.40
2023-05-16T09:00:11.892Z,3.10
2023-05-16T09:02:40.611Z,4.40
2023-05-16T09:05:09.794Z,3.20
2023-05-16T09:07:36.664Z,3.70
2023-05-16T09:10:03.992Z,4.30
2023-05-16T09:12:31.291Z,3.00
2023-05-16T09:14:59.246Z,2.90
2023-05-16T09:17:38.790Z,3.70
2023-05-16T09:20:18.429Z,1.90
2023-05-16T09:22:55.167Z,3.60
2023-05-16T09:25:30.200Z,5.00
2023-05-16T09:28:00.213Z,3.30
2023-05-16T09:30:31.819Z,1.80
2023-05-16T09:32:59.352Z,3.00
2023-05-16T09:37:57.120Z,2.40
2023-05-16T09:40:25.444Z,2.10
2023-05-16T09:43:05.735Z,2.60
2023-05-16T09:45:34.329Z,2.30
2023-05-16T09:48:05.552Z,3.70
2023-05-16T09:50:33.529Z,2.40
2023-05-16T09:53:01.030Z,3.40
2023-05-16T09:55:28.262Z,2.90
2023-05-16T09:57:55.355Z,2.30
2023-05-16T10:00:23.221Z,6.70
2023-05-16T10:02:50.766Z,4.20
2023-05-16T10:05:18.748Z,4.20
2023-05-16T10:07:47.190Z,4.80
2023-05-16T10:10:17.262Z,4.10
2023-05-16T10:12:46.100Z,2.70
2023-05-16T10:15:13.364Z,2.60
2023-05-16T10:17:43.619Z,2.60
2023-05-16T10:20:13.917Z,2.60
2023-05-16T10:22:44.999Z,2.50
2023-05-16T10:25:19.161Z,3.10
2023-05-16T10:27:47.707Z,4.80
2023-05-16T10:30:17.461Z,2.90
2023-05-16T10:32:45.445Z,3.90
2023-05-16T10:35:13.644Z,3.80
2023-05-16T10:37:41.678Z,3.60
2023-05-16T10:40:11.774Z,3.70
2023-05-16T10:42:38.932Z,3.00
2023-05-16T10:45:21.583Z,2.40
2023-05-16T10:47:56.760Z,3.30
2023-05-16T10:50:35.998Z,4.50
2023-05-16T10:53:19.919Z,3.30
2023-05-16T10:56:06.013Z,3.00
2023-05-16T10:58:46.383Z,7.00
2023-05-16T11:01:24.528Z,2.40
2023-05-16T11:04:20.441Z,2.00
2023-05-16T11:06:59.096Z,3.70
2023-05-16T11:09:29.524Z,3.50
2023-05-16T11:12:04.018Z,3.40
2023-05-16T11:14:39.093Z,3.80
2023-05-16T11:17:10.247Z,5.60
2023-05-16T11:19:41.266Z,7.30
2023-05-16T11:22:25.112Z,5.30
2023-05-16T11:24:58.264Z,3.00
2023-05-16T11:27:28.141Z,6.40
2023-05-16T11:29:56.892Z,4.10
2023-05-16T11:32:25.193Z,4.30
2023-05-16T11:34:53.297Z,2.20
2023-05-16T11:37:21.820Z,3.70
2023-05-16T11:39:49.025Z,3.00
2023-05-16T11:42:18.112Z,4.60
2023-05-16T11:44:44.973Z,3.30
2023-05-16T11:47:12.461Z,5.30
2023-05-16T11:49:39.773Z,5.20
2023-05-16T11:52:09.675Z,2.90
2023-05-16T11:54:37.571Z,2.20
2023-05-16T11:57:05.287Z,3.70
2023-05-16T11:59:32.418Z,2.70
2023-05-16T12:01:59.540Z,4.10
2023-05-16T12:04:26.840Z,3.00
2023-05-16T12:07:02.972Z,4.10
2023-05-16T12:09:30.503Z,2.30
2023-05-16T12:11:57.493Z,2.90
2023-05-16T12:14:26.230Z,3.80
2023-05-16T12:16:55.147Z,3.90
2023-05-16T12:19:23.094Z,4.70
2023-05-16T12:21:53.290Z,4.40
2023-05-16T12:24:20.843Z,4.90
2023-05-16T12:26:47.681Z,4.40
2023-05-16T12:29:14.739Z,3.30
2023-05-16T12:31:42.515Z,3.40
2023-05-16T12:34:18.088Z,3.50
2023-05-16T12:36:45.625Z,2.90
2023-05-16T12:39:16.176Z,3.40
2023-05-16T12:41:44.324Z,3.00
2023-05-16T12:44:14.560Z,4.80
2023-05-16T12:46:45.843Z,7.50
2023-05-16T12:49:13.461Z,3.40
2023-05-16T12:51:40.440Z,3.70
2023-05-16T12:54:14.997Z,6.10
2023-05-16T12:56:43.871Z,4.70
2023-05-16T12:59:12.317Z,4.40
2023-05-16T13:01:41.278Z,5.50
2023-05-16T13:04:09.710Z,7.70
2023-05-16T13:06:56.454Z,6.50
2023-05-16T13:09:29.953Z,3.20
2023-05-16T13:11:59.790Z,3.30
2023-05-16T13:14:27.071Z,11.50
2023-05-16T13:16:53.898Z,4.70
2023-05-16T13:19:22.695Z,6.20
2023-05-16T13:21:49.876Z,3.10
2023-05-16T13:24:17.143Z,4.50
2023-05-16T13:26:44.157Z,3.70
2023-05-16T13:29:12.146Z,4.90
2023-05-16T13:31:39.072Z,2.70
2023-05-16T13:34:07.022Z,4.20
2023-05-16T13:36:49.362Z,3.60
2023-05-16T13:39:20.406Z,2.50
2023-05-16T13:41:49.186Z,4.30
2023-05-16T13:44:16.498Z,2.20
2023-05-16T13:46:43.397Z,4.50
2023-05-16T13:49:11.014Z,4.10
2023-05-16T13:51:37.876Z,2.60
2023-05-16T13:54:04.918Z,5.20
2023-05-16T13:56:32.160Z,2.40
2023-05-16T13:59:03.905Z,3.10
2023-05-16T14:01:33.472Z,2.30
2023-05-16T14:04:00.577Z,2.50
2023-05-16T14:06:27.620Z,4.20
2023-05-16T14:08:55.214Z,2.70
2023-05-16T14:11:28.782Z,1.70
2023-05-16T14:13:57.340Z,1.50
2023-05-16T14:16:24.317Z,2.80
2023-05-16T14:18:51.485Z,1.90
2023-05-16T14:21:19.805Z,3.30
2023-05-16T14:23:46.807Z,3.70
2023-05-16T14:26:14.185Z,3.10
2023-05-16T14:28:41.544Z,1.80
2023-05-16T14:31:08.531Z,3.00
2023-05-16T14:33:35.411Z,2.50
2023-05-16T14:36:02.627Z,2.20
2023-05-16T14:38:29.583Z,4.00
2023-05-16T14:40:56.460Z,9.60
2023-05-16T14:43:23.484Z,4.20
2023-05-16T14:45:50.466Z,2.60
2023-05-16T14:48:17.739Z,3.60
2023-05-16T14:50:44.728Z,4.80
2023-05-16T14:53:11.869Z,4.70
2023-05-16T14:55:38.828Z,3.90
2023-05-16T14:58:06.206Z,2.80
2023-05-16T15:00:33.250Z,3.70
2023-05-16T15:03:00.564Z,1.90
2023-05-16T15:05:29.425Z,3.80
2023-05-16T15:07:56.838Z,4.70
2023-05-16T15:10:27.414Z,2.50
2023-05-16T15:12:54.609Z,3.70
2023-05-16T15:15:21.878Z,11.90
2023-05-16T15:17:48.838Z,3.20
2023-05-16T15:20:16.556Z,4.90
2023-05-16T15:22:43.481Z,1.70
2023-05-16T15:25:12.101Z,10.20
2023-05-16T15:27:40.226Z,4.50
2023-05-16T15:30:08.865Z,3.50
2023-05-16T15:32:35.951Z,4.10
2023-05-16T15:35:04.047Z,5.30
2023-05-16T15:37:31.468Z,4.90
2023-05-16T15:39:58.416Z,4.30
2023-05-16T15:42:25.485Z,5.20
2023-05-16T15:44:52.874Z,1.80
2023-05-16T15:47:20.077Z,2.90
2023-05-16T15:49:47.310Z,2.70
2023-05-16T15:52:14.608Z,6.60
2023-05-16T15:54:42.723Z,4.10
2023-05-16T15:57:09.704Z,3.10
2023-05-16T15:59:36.650Z,5.00
2023-05-16T16:02:05.537Z,6.60
2023-05-16T16:04:33.209Z,3.40
2023-05-16T16:07:00.146Z,2.00
2023-05-16T16:09:27.157Z,3.20
2023-05-16T16:11:56.493Z,3.80
2023-05-16T16:14:23.442Z,5.80
2023-05-16T16:16:50.633Z,3.40
2023-05-16T16:19:18.011Z,2.80
2023-05-16T16:21:45.088Z,2.50
2023-05-16T16:24:11.995Z,4.80
2023-05-16T16:26:39.096Z,6.00
2023-05-16T16:29:06.690Z,3.60
2023-05-16T16:31:33.765Z,5.80
2023-05-16T16:34:01.079Z,4.60
2023-05-16T16:36:27.990Z,5.70
2023-05-16T16:38:54.880Z,3.60
2023-05-16T16:41:21.882Z,3.70
2023-05-16T16:43:48.874Z,5.70
2023-05-16T16:46:15.931Z,2.70
2023-05-16T16:48:45.656Z,4.80
2023-05-16T16:51:12.529Z,5.30
2023-05-16T16:53:39.631Z,6.40
2023-05-16T16:56:07.825Z,3.70
2023-05-16T16:58:34.780Z,2.10
2023-05-16T17:01:01.922Z,2.50
2023-05-16T17:03:29.206Z,2.50
2023-05-16T17:05:58.855Z,2.80
2023-05-16T17:08:25.750Z,2.90
2023-05-16T17:10:53.052Z,5.80
2023-05-16T17:13:20.464Z,3.70
2023-05-16T17:15:48.235Z,3.90
2023-05-16T17:18:15.618Z,3.40
2023-05-16T17:20:42.572Z,3.10
2023-05-16T17:23:09.522Z,5.90
2023-05-16T17:25:36.620Z,4.20
2023-05-16T17:28:04.034Z,5.20
2023-05-16T17:30:31.196Z,4.10
2023-05-16T17:32:58.526Z,4.00
2023-05-16T17:35:25.756Z,3.80
2023-05-16T17:37:53.016Z,3.00
2023-05-16T17:40:20.788Z,4.20
2023-05-16T17:42:48.167Z,4.40
2023-05-16T17:45:17.210Z,3.00
2023-05-16T17:47:44.529Z,3.00
2023-05-16T17:50:12.810Z,3.70
2023-05-16T17:52:40.651Z,6.30
2023-05-16T17:55:09.980Z,4.70
2023-05-16T17:57:36.979Z,5.40
2023-05-16T18:00:05.826Z,3.30
2023-05-16T18:02:36.051Z,4.70
2023-05-16T18:05:06.823Z,3.30
2023-05-16T18:07:34.159Z,3.70
2023-05-16T18:10:01.044Z,5.40
2023-05-16T18:12:28.171Z,3.60
2023-05-16T18:14:55.036Z,4.50
2023-05-16T18:17:22.017Z,5.30
2023-05-16T18:19:49.227Z,4.80
2023-05-16T18:22:16.294Z,3.30
2023-05-16T18:24:46.599Z,3.10
2023-05-16T18:27:13.818Z,2.60
2023-05-16T18:29:40.681Z,5.90
2023-05-16T18:32:08.940Z,4.50
2023-05-16T18:34:35.947Z,4.30
2023-05-16T18:37:02.928Z,4.20
2023-05-16T18:39:29.846Z,3.40
2023-05-16T18:41:56.909Z,8.70
2023-05-16T18:44:23.859Z,6.80
2023-05-16T18:46:50.743Z,3.90
2023-05-16T18:49:17.705Z,3.70
2023-05-16T18:51:44.732Z,6.00
2023-05-16T18:54:11.667Z,5.00
2023-05-16T18:56:38.665Z,5.50
2023-05-16T18:59:06.790Z,3.80
2023-05-16T19:01:33.920Z,3.30
2023-05-16T19:04:01.004Z,5.70
2023-05-16T19:06:28.106Z,8.30
2023-05-16T19:08:55.074Z,5.30
2023-05-16T19:11:22.846Z,7.00
2023-05-16T19:13:49.750Z,4.90
2023-05-16T19:16:16.966Z,3.70
2023-05-16T19:18:44.521Z,5.10
2023-05-16T19:21:13.588Z,5.90
2023-05-16T19:23:40.767Z,3.60
2023-05-16T19:26:07.873Z,7.40
2023-05-16T19:28:34.939Z,4.30
2023-05-16T19:31:01.954Z,7.10
2023-05-16T19:33:29.124Z,5.00
2023-05-16T19:35:58.593Z,10.30
2023-05-16T19:38:26.187Z,8.40
2023-05-16T19:40:53.998Z,3.70
2023-05-16T19:43:21.163Z,8.40
2023-05-16T19:45:47.994Z,6.80
2023-05-16T19:48:15.268Z,6.50
2023-05-16T19:50:42.751Z,6.30
2023-05-16T19:53:09.977Z,6.10
2023-05-16T19:55:38.734Z,4.80
2023-05-16T19:58:05.761Z,7.30
2023-05-16T20:00:32.967Z,11.40
2023-05-16T20:03:00.676Z,4.40
2023-05-16T20:05:28.181Z,8.50
2023-05-16T20:07:56.135Z,7.00
2023-05-16T20:10:23.260Z,9.70
2023-05-16T20:12:50.351Z,6.30
2023-05-16T20:15:19.019Z,8.20
2023-05-16T20:17:46.369Z,9.80
2023-05-16T20:20:13.913Z,10.70
2023-05-16T20:22:41.948Z,8.40
2023-05-16T20:25:11.742Z,7.20
2023-05-16T20:27:38.763Z,11.70
2023-05-16T20:30:08.012Z,7.30
2023-05-16T20:32:35.528Z,10.40
2023-05-16T20:35:04.876Z,11.20
2023-05-16T20:37:31.787Z,6.10
2023-05-16T20:39:59.244Z,6.70
2023-05-16T20:42:26.134Z,7.80
2023-05-16T20:44:53.011Z,10.70
2023-05-16T20:47:20.042Z,10.50
2023-05-16T20:49:46.908Z,13.10
2023-05-16T20:52:13.996Z,12.30
2023-05-16T20:54:41.895Z,8.90
2023-05-16T20:57:09.152Z,11.60
2023-05-16T20:59:37.576Z,9.40
2023-05-16T21:02:05.856Z,15.00
2023-05-16T21:04:33.026Z,10.10
2023-05-16T21:07:00.327Z,8.50
2023-05-16T21:09:27.289Z,9.50
2023-05-16T21:11:54.266Z,14.50
2023-05-16T21:14:21.165Z,10.90
2023-05-16T21:16:48.304Z,8.30
2023-05-16T21:19:15.426Z,8.70
2023-05-16T21:21:42.420Z,13.10
2023-05-16T21:24:10.021Z,12.90
2023-05-16T21:26:37.071Z,10.00
2023-05-16T21:29:04.141Z,10.70
2023-05-16T21:31:31.219Z,8.60
2023-05-16T21:33:58.097Z,9.50
2023-05-16T21:36:25.474Z,8.40
2023-05-16T21:38:52.529Z,11.00
2023-05-16T21:41:21.833Z,14.30
2023-05-16T21:43:48.783Z,8.80
2023-05-16T21:46:16.010Z,13.50
2023-05-16T21:48:42.977Z,9.10
2023-05-16T21:51:10.957Z,7.30
2023-05-16T21:53:38.501Z,9.30
2023-05-16T21:56:06.106Z,7.50
2023-05-16T21:58:33.197Z,12.30
2023-05-16T22:01:16.626Z,9.50
2023-05-16T22:03:52.798Z,12.30
2023-05-16T22:06:19.952Z,7.30
2023-05-16T22:08:46.954Z,13.40
2023-05-16T22:11:14.052Z,9.10
2023-05-16T22:13:42.163Z,11.60
2023-05-16T22:16:09.926Z,10.20
2023-05-16T22:18:37.154Z,8.70
2023-05-16T22:21:04.385Z,9.40
2023-05-16T22:23:31.314Z,9.60
2023-05-16T22:25:58.615Z,13.00
2023-05-16T22:28:26.393Z,11.10
2023-05-16T22:30:53.444Z,9.10
2023-05-16T22:33:22.802Z,12.70
2023-05-16T22:35:50.050Z,8.80
2023-05-16T22:38:17.112Z,12.50
2023-05-16T22:40:44.604Z,11.30
2023-05-16T22:43:11.713Z,15.00
2023-05-16T22:45:38.697Z,15.20
2023-05-16T22:48:06.306Z,11.80
2023-05-16T22:50:33.399Z,13.50
2023-05-16T22:53:00.363Z,14.30
2023-05-16T22:55:27.760Z,14.50
2023-05-16T22:57:57.323Z,11.30
2023-05-16T23:00:27.202Z,14.70
2023-05-16T23:02:54.342Z,14.60
2023-05-16T23:05:22.098Z,15.10
2023-05-16T23:07:49.106Z,13.40
2023-05-16T23:10:16.039Z,11.70
2023-05-16T23:12:43.019Z,19.30
2023-05-16T23:15:11.881Z,15.60
2023-05-16T23:17:39.641Z,18.00
2023-05-16T23:20:08.205Z,12.70
2023-05-16T23:22:35.344Z,13.10
2023-05-16T23:25:02.414Z,14.10
2023-05-16T23:27:29.365Z,12.40
2023-05-16T23:29:56.362Z,18.20
2023-05-16T23:32:23.562Z,13.70
2023-05-16T23:34:50.553Z,14.40
2023-05-16T23:37:17.399Z,13.20
2023-05-16T23:39:45.152Z,15.20
2023-05-16T23:42:12.330Z,14.60
2023-05-16T23:44:41.842Z,15.70
2023-05-16T23:47:09.478Z,15.70
2023-05-16T23:49:36.413Z,19.60
2023-05-16T23:52:05.994Z,15.60
2023-05-16T23:54:33.278Z,19.30
2023-05-16T23:57:00.304Z,15.80
2023-05-16T23:59:27.424Z,19.60
